Time;durP1;ratioP1;P1;durP2;ratioP2;P2;SDS_P1;SDS_P2;PMS_P1;PMS_P2;Temp;Humidity;BMP_temperature;BMP_pressure;BME280_temperature;BME280_humidity;BME280_pressure;Samples;Min_cycle;Max_cycle;Signal;HPM_P1;HPM_P2
2021/09/25 00:07:30;;;;;;;12.80;4.50;;;;;;;14.53;100.00;99766.08;713751;1200;114129;-72
2021/09/25 00:22:33;;;;;;;12.20;5.43;;;;;;;14.54;100.00;99765.09;713615;1199;114835;-72
2021/09/25 00:37:36;;;;;;;12.63;4.90;;;;;;;14.53;100.00;99768.72;713717;1199;115609;-72
2021/09/25 00:52:38;;;;;;;9.70;5.40;;;;;;;14.59;100.00;99765.39;713860;1202;114145;-72
2021/09/25 01:07:40;;;;;;;139.13;47.57;;;;;;;14.69;100.00;99749.34;714091;1202;113913;-73
2021/09/25 01:22:43;;;;;;;19.20;10.37;;;;;;;14.88;100.00;99767.38;713764;1200;114805;-72
2021/09/25 01:37:47;;;;;;;117.90;40.75;;;;;;;14.99;100.00;99752.93;713727;1199;114381;-73
2021/09/25 01:52:50;;;;;;;23.00;11.20;;;;;;;15.10;100.00;99744.60;713776;1199;115807;-74
2021/09/25 02:07:53;;;;;;;40.03;17.25;;;;;;;15.13;100.00;99730.22;713702;1204;114715;-73
2021/09/25 02:22:55;;;;;;;24.95;11.35;;;;;;;15.16;100.00;99721.11;713769;1200;115729;-74
2021/09/25 02:37:57;;;;;;;18.08;8.98;;;;;;;15.15;100.00;99730.88;713729;1199;115203;-72
2021/09/25 02:52:59;;;;;;;20.23;9.35;;;;;;;15.30;100.00;99715.04;714012;1199;115290;-73
2021/09/25 03:08:02;;;;;;;16.85;9.35;;;;;;;15.54;100.00;99727.17;713784;1177;114043;-73
2021/09/25 03:23:04;;;;;;;16.15;9.98;;;;;;;15.46;100.00;99735.20;715529;1177;113839;-72
2021/09/25 03:38:06;;;;;;;18.05;10.10;;;;;;;15.43;100.00;99736.38;713740;1199;113970;-72
2021/09/25 03:53:08;;;;;;;19.60;12.15;;;;;;;15.53;100.00;99741.39;713840;1200;114673;-73
2021/09/25 04:08:11;;;;;;;26.08;12.65;;;;;;;15.58;100.00;99746.15;714003;1200;115753;-72
2021/09/25 04:23:13;;;;;;;22.15;13.00;;;;;;;15.73;100.00;99744.34;713896;1200;114774;-72
2021/09/25 04:38:15;;;;;;;19.10;12.47;;;;;;;15.87;100.00;99747.20;713997;1199;115343;-73
2021/09/25 04:53:18;;;;;;;27.80;14.85;;;;;;;15.90;100.00;99762.69;714021;1202;115774;-73
2021/09/25 05:08:20;;;;;;;28.40;15.25;;;;;;;16.03;100.00;99762.05;714785;1200;115368;-72
2021/09/25 05:23:22;;;;;;;25.63;14.83;;;;;;;16.19;100.00;99767.13;714225;1199;115627;-73
2021/09/25 05:38:24;;;;;;;27.80;16.40;;;;;;;16.26;100.00;99780.47;714087;1200;113738;-74
2021/09/25 05:53:32;;;;;;;26.10;14.78;;;;;;;16.36;100.00;99783.63;714883;1177;114289;-75
2021/09/25 06:09:11;;;;;;;23.30;14.57;;;;;;;16.54;100.00;99791.17;714597;1179;114213;-80
2021/09/25 06:24:21;;;;;;;27.08;16.05;;;;;;;16.70;100.00;99805.20;716337;1200;114312;-80
2021/09/25 06:39:24;;;;;;;28.65;16.13;;;;;;;16.69;100.00;99812.31;716239;1205;114767;-89
2021/09/25 06:54:26;;;;;;;40.40;18.17;;;;;;;16.56;100.00;99828.05;715609;1200;115860;-80
2021/09/25 07:09:28;;;;;;;29.57;17.40;;;;;;;16.41;100.00;99844.78;716239;1200;114507;-80
2021/09/25 07:24:31;;;;;;;32.58;17.98;;;;;;;16.51;100.00;99864.84;715227;1204;114377;-81
2021/09/25 07:39:34;;;;;;;30.80;16.40;;;;;;;16.89;100.00;99878.77;714345;1205;115667;-83
2021/09/25 07:54:36;;;;;;;30.85;16.68;;;;;;;17.56;100.00;99894.55;714282;1200;115495;-86
2021/09/25 08:09:39;;;;;;;24.73;13.78;;;;;;;17.85;100.00;99898.06;714523;1200;115828;-84
2021/09/25 08:24:47;;;;;;;30.00;19.63;;;;;;;17.76;100.00;99908.81;714480;1177;114220;-84
2021/09/25 08:39:49;;;;;;;25.58;15.18;;;;;;;17.65;100.00;99919.92;714783;1199;114199;-79
2021/09/25 08:54:51;;;;;;;29.57;16.07;;;;;;;17.73;100.00;99938.35;714327;1200;114062;-78
2021/09/25 09:09:54;;;;;;;29.37;16.77;;;;;;;17.76;100.00;99947.77;714083;1206;115279;-79
2021/09/25 09:24:57;;;;;;;22.43;12.95;;;;;;;17.79;100.00;99958.83;714577;1176;114287;-77
2021/09/25 09:40:01;;;;;;;23.30;14.05;;;;;;;17.96;100.00;99979.80;714373;1181;114087;-73
2021/09/25 09:55:06;;;;;;;22.10;11.23;;;;;;;17.72;100.00;99992.41;714216;1200;114086;-74
2021/09/25 10:10:09;;;;;;;12.90;7.30;;;;;;;17.89;100.00;100003.59;714163;1202;114917;-75
2021/09/25 10:25:15;;;;;;;36.15;15.10;;;;;;;18.43;100.00;100027.97;714179;1177;114132;-75
2021/09/25 10:40:21;;;;;;;18.83;8.63;;;;;;;18.72;100.00;100013.64;714459;1180;115974;-84
2021/09/25 10:55:29;;;;;;;10.60;5.85;;;;;;;19.01;100.00;100017.11;714243;1200;115048;-77
2021/09/25 11:10:58;;;;;;;8.03;5.08;;;;;;;19.06;100.00;100032.48;714393;1203;115579;-86
2021/09/25 11:26:00;;;;;;;7.70;4.37;;;;;;;19.07;100.00;100026.13;714444;1200;114376;-83
2021/09/25 11:41:04;;;;;;;15.27;7.33;;;;;;;19.34;100.00;100037.70;715515;1190;113992;-84
2021/09/25 11:56:06;;;;;;;8.50;4.68;;;;;;;19.08;100.00;100052.53;714800;1200;115637;-84
2021/09/25 12:11:10;;;;;;;13.10;7.75;;;;;;;18.81;100.00;100061.34;714512;1203;115657;-85
2021/09/25 12:26:21;;;;;;;17.60;8.73;;;;;;;18.86;100.00;100066.87;714912;1205;115254;-86
2021/09/25 12:41:26;;;;;;;10.50;6.30;;;;;;;19.89;100.00;100090.10;714593;1199;114603;-86
2021/09/25 12:56:35;;;;;;;9.58;6.83;;;;;;;19.78;100.00;100104.76;715186;1200;114526;-85
2021/09/25 13:11:37;;;;;;;11.68;7.20;;;;;;;19.68;100.00;100110.47;729837;1200;114455;-83
2021/09/25 13:26:40;;;;;;;17.23;9.48;;;;;;;19.33;100.00;100123.81;718684;1200;115621;-80
2021/09/25 13:41:43;;;;;;;14.00;8.08;;;;;;;19.19;100.00;100130.91;714651;1200;114730;-79
2021/09/25 13:56:45;;;;;;;53.60;25.93;;;;;;;19.21;100.00;100144.00;714766;1200;114361;-78
2021/09/25 14:11:49;;;;;;;15.60;8.53;;;;;;;19.24;100.00;100163.05;714850;1177;114295;-79
2021/09/25 14:26:51;;;;;;;25.53;15.23;;;;;;;19.20;100.00;100187.55;714707;1202;115707;-79
2021/09/25 14:42:11;;;;;;;34.35;18.58;;;;;;;19.11;100.00;100200.20;714679;1200;114357;-79
2021/09/25 14:57:14;;;;;;;70.98;46.10;;;;;;;19.12;100.00;100204.47;714621;1202;115172;-79
2021/09/25 15:12:17;;;;;;;42.03;22.93;;;;;;;19.08;100.00;100224.48;714380;1206;114777;-80
2021/09/25 15:27:20;;;;;;;39.47;23.77;;;;;;;19.03;100.00;100235.71;714481;1204;115108;-84
2021/09/25 15:42:22;;;;;;;78.60;38.43;;;;;;;18.90;100.00;100249.70;714820;1200;114497;-86
2021/09/25 15:57:25;;;;;;;84.20;49.13;;;;;;;18.62;100.00;100270.84;714642;1200;114348;-84
2021/09/25 16:12:28;;;;;;;28.13;15.70;;;;;;;18.50;100.00;100289.11;714431;1178;114299;-85
2021/09/25 16:27:30;;;;;;;36.23;19.95;;;;;;;18.29;100.00;100311.97;714353;1199;114430;-86
2021/09/25 16:42:33;;;;;;;51.33;35.67;;;;;;;18.19;100.00;100345.13;715016;1177;115223;-84
2021/09/25 16:57:36;;;;;;;31.90;20.28;;;;;;;17.93;100.00;100344.55;714939;1203;114380;-87
2021/09/25 17:12:39;;;;;;;55.28;35.03;;;;;;;17.55;100.00;100370.25;714774;1200;115598;-85
2021/09/25 17:27:43;;;;;;;29.53;18.25;;;;;;;17.36;100.00;100398.91;714532;1200;114349;-82
2021/09/25 17:42:47;;;;;;;33.98;18.68;;;;;;;17.09;100.00;100427.59;714626;1200;115631;-83
2021/09/25 17:57:49;;;;;;;28.50;16.40;;;;;;;16.81;100.00;100437.78;714454;1200;114429;-82
2021/09/25 18:12:52;;;;;;;50.33;26.53;;;;;;;16.32;100.00;100443.25;714403;1202;115334;-80
2021/09/25 18:27:55;;;;;;;58.83;34.18;;;;;;;16.08;100.00;100482.00;715025;1206;114191;-82
2021/09/25 18:42:57;;;;;;;40.08;20.58;;;;;;;16.03;100.00;100497.54;714810;1200;113603;-84
2021/09/25 18:57:59;;;;;;;30.70;16.48;;;;;;;16.05;100.00;100511.45;714981;1199;114466;-82
2021/09/25 19:13:02;;;;;;;23.48;12.53;;;;;;;15.96;100.00;100522.00;714808;1198;114349;-81
2021/09/25 19:28:05;;;;;;;27.50;16.07;;;;;;;15.95;100.00;100548.63;714606;1202;114825;-83
2021/09/25 19:43:08;;;;;;;40.48;19.40;;;;;;;15.93;100.00;100543.51;714415;1199;115509;-81
2021/09/25 19:58:11;;;;;;;19.10;11.18;;;;;;;15.68;100.00;100555.84;713986;1176;115110;-82
2021/09/25 20:13:13;;;;;;;28.93;15.68;;;;;;;15.38;100.00;100565.98;714065;1202;115137;-81
2021/09/25 20:28:15;;;;;;;14.05;8.25;;;;;;;15.10;100.00;100555.64;713762;1203;115185;-80
2021/09/25 20:43:18;;;;;;;22.30;11.55;;;;;;;14.84;100.00;100570.70;713886;1202;114702;-80
2021/09/25 20:58:21;;;;;;;17.57;10.97;;;;;;;14.78;100.00;100578.26;713886;1185;114289;-81
2021/09/25 21:13:24;;;;;;;21.50;9.17;;;;;;;14.68;100.00;100590.73;713773;1200;115762;-81
2021/09/25 21:28:27;;;;;;;22.43;10.15;;;;;;;14.24;100.00;100607.35;713721;1200;114303;-82
2021/09/25 21:43:29;;;;;;;16.35;8.55;;;;;;;14.07;100.00;100616.92;713915;1200;114211;-80
2021/09/25 21:58:32;;;;;;;18.35;8.45;;;;;;;13.81;100.00;100624.72;713805;1203;113999;-80
2021/09/25 22:13:37;;;;;;;19.20;8.28;;;;;;;13.70;100.00;100641.58;713731;1176;113855;-82
2021/09/25 22:28:39;;;;;;;15.48;7.98;;;;;;;13.60;100.00;100659.25;713939;1204;114748;-81
2021/09/25 22:43:43;;;;;;;14.50;7.67;;;;;;;13.41;100.00;100662.80;714881;1205;113939;-81
2021/09/25 22:58:45;;;;;;;35.13;16.23;;;;;;;13.36;100.00;100679.03;714462;1203;115058;-81
2021/09/25 23:13:47;;;;;;;22.85;11.30;;;;;;;13.29;100.00;100684.02;714101;1188;114701;-80
2021/09/25 23:28:49;;;;;;;18.57;9.03;;;;;;;13.36;100.00;100709.80;713919;1200;114151;-81
2021/09/25 23:43:53;;;;;;;14.27;8.07;;;;;;;13.32;100.00;100711.88;715020;1200;115672;-79
2021/09/25 23:58:55;;;;;;;26.58;11.93;;;;;;;13.45;100.00;100725.61;714782;1205;115646;-81
